sensor_id;sensor_type;location;lat;lon;timestamp;temperature;humidity
21459;DHT22;10891;49.350;19.386;2022-12-07T00:00:53;1.10;99.90
21459;DHT22;10891;49.350;19.386;2022-12-07T00:03:20;1.10;99.90
21459;DHT22;10891;49.350;19.386;2022-12-07T00:05:46;1.00;99.90
21459;DHT22;10891;49.350;19.386;2022-12-07T00:08:15;1.00;99.90
21459;DHT22;10891;49.350;19.386;2022-12-07T00:10:41;1.10;99.90
21459;DHT22;10891;49.350;19.386;2022-12-07T00:13:08;1.10;99.90
21459;DHT22;10891;49.350;19.386;2022-12-07T00:15:35;1.00;99.90
21459;DHT22;10891;49.350;19.386;2022-12-07T00:18:02;1.00;99.90
21459;DHT22;10891;49.350;19.386;2022-12-07T00:20:29;1.00;99.90
21459;DHT22;10891;49.350;19.386;2022-12-07T00:22:56;1.10;99.90
21459;DHT22;10891;49.350;19.386;2022-12-07T00:25:24;1.00;99.90
21459;DHT22;10891;49.350;19.386;2022-12-07T00:27:52;1.00;99.90
21459;DHT22;10891;49.350;19.386;2022-12-07T00:30:21;1.00;99.90
21459;DHT22;10891;49.350;19.386;2022-12-07T00:32:48;1.00;99.90
21459;DHT22;10891;49.350;19.386;2022-12-07T00:35:15;1.00;99.90
21459;DHT22;10891;49.350;19.386;2022-12-07T00:37:41;1.00;99.90
21459;DHT22;10891;49.350;19.386;2022-12-07T00:40:09;1.00;99.90
21459;DHT22;10891;49.350;19.386;2022-12-07T00:42:37;0.90;99.90
21459;DHT22;10891;49.350;19.386;2022-12-07T00:45:05;0.90;99.90
21459;DHT22;10891;49.350;19.386;2022-12-07T00:47:32;1.00;99.90
21459;DHT22;10891;49.350;19.386;2022-12-07T00:49:59;1.10;99.90
21459;DHT22;10891;49.350;19.386;2022-12-07T00:52:26;1.00;99.90
21459;DHT22;10891;49.350;19.386;2022-12-07T00:54:53;1.10;99.90
21459;DHT22;10891;49.350;19.386;2022-12-07T00:57:19;1.00;99.90
21459;DHT22;10891;49.350;19.386;2022-12-07T00:59:48;1.00;99.90
21459;DHT22;10891;49.350;19.386;2022-12-07T01:02:14;1.10;99.90
21459;DHT22;10891;49.350;19.386;2022-12-07T01:04:41;1.10;99.90
21459;DHT22;10891;49.350;19.386;2022-12-07T01:07:08;1.10;99.90
21459;DHT22;10891;49.350;19.386;2022-12-07T01:09:35;1.10;99.90
21459;DHT22;10891;49.350;19.386;2022-12-07T01:12:02;1.10;99.90
21459;DHT22;10891;49.350;19.386;2022-12-07T01:14:29;1.10;99.90
21459;DHT22;10891;49.350;19.386;2022-12-07T01:16:57;1.10;99.90
21459;DHT22;10891;49.350;19.386;2022-12-07T01:19:24;1.10;99.90
21459;DHT22;10891;49.350;19.386;2022-12-07T01:21:51;1.20;99.90
21459;DHT22;10891;49.350;19.386;2022-12-07T01:24:17;1.30;99.90
21459;DHT22;10891;49.350;19.386;2022-12-07T01:26:44;1.30;99.90
21459;DHT22;10891;49.350;19.386;2022-12-07T01:29:11;1.30;99.90
21459;DHT22;10891;49.350;19.386;2022-12-07T01:31:38;1.30;99.90
21459;DHT22;10891;49.350;19.386;2022-12-07T01:34:06;1.30;99.90
21459;DHT22;10891;49.350;19.386;2022-12-07T01:36:35;1.30;99.90
21459;DHT22;10891;49.350;19.386;2022-12-07T01:39:04;1.30;99.90
21459;DHT22;10891;49.350;19.386;2022-12-07T01:41:34;1.40;99.90
21459;DHT22;10891;49.350;19.386;2022-12-07T01:44:12;1.30;99.90
21459;DHT22;10891;49.350;19.386;2022-12-07T01:46:40;1.40;99.90
21459;DHT22;10891;49.350;19.386;2022-12-07T01:49:11;1.40;99.90
21459;DHT22;10891;49.350;19.386;2022-12-07T01:51:40;1.40;99.90
21459;DHT22;10891;49.350;19.386;2022-12-07T01:54:10;1.30;99.90
21459;DHT22;10891;49.350;19.386;2022-12-07T01:56:40;1.30;99.90
21459;DHT22;10891;49.350;19.386;2022-12-07T01:59:09;1.40;99.90
21459;DHT22;10891;49.350;19.386;2022-12-07T02:01:36;1.40;99.90
21459;DHT22;10891;49.350;19.386;2022-12-07T02:04:03;1.40;99.90
21459;DHT22;10891;49.350;19.386;2022-12-07T02:06:31;1.50;99.90
21459;DHT22;10891;49.350;19.386;2022-12-07T02:08:58;1.50;99.90
21459;DHT22;10891;49.350;19.386;2022-12-07T02:11:25;1.50;99.90
21459;DHT22;10891;49.350;19.386;2022-12-07T02:13:52;1.50;99.90
21459;DHT22;10891;49.350;19.386;2022-12-07T02:16:27;1.50;99.90
21459;DHT22;10891;49.350;19.386;2022-12-07T02:19:13;1.50;99.90
21459;DHT22;10891;49.350;19.386;2022-12-07T02:21:50;1.60;99.90
21459;DHT22;10891;49.350;19.386;2022-12-07T02:24:31;1.60;99.90
21459;DHT22;10891;49.350;19.386;2022-12-07T02:27:11;1.70;99.90
21459;DHT22;10891;49.350;19.386;2022-12-07T02:29:45;1.60;99.90
21459;DHT22;10891;49.350;19.386;2022-12-07T02:32:16;1.70;99.90
21459;DHT22;10891;49.350;19.386;2022-12-07T02:34:49;1.60;99.90
21459;DHT22;10891;49.350;19.386;2022-12-07T02:37:29;1.70;99.90
21459;DHT22;10891;49.350;19.386;2022-12-07T02:40:03;1.70;99.90
21459;DHT22;10891;49.350;19.386;2022-12-07T02:42:35;1.60;99.90
21459;DHT22;10891;49.350;19.386;2022-12-07T02:45:06;1.60;99.90
21459;DHT22;10891;49.350;19.386;2022-12-07T02:47:34;1.60;99.90
21459;DHT22;10891;49.350;19.386;2022-12-07T02:50:04;1.50;99.90
21459;DHT22;10891;49.350;19.386;2022-12-07T02:52:31;1.50;99.90
21459;DHT22;10891;49.350;19.386;2022-12-07T02:54:58;1.50;99.90
21459;DHT22;10891;49.350;19.386;2022-12-07T02:57:42;1.50;99.90
21459;DHT22;10891;49.350;19.386;2022-12-07T03:00:18;1.50;99.90
21459;DHT22;10891;49.350;19.386;2022-12-07T03:02:54;1.50;99.90
21459;DHT22;10891;49.350;19.386;2022-12-07T03:05:40;1.40;99.90
21459;DHT22;10891;49.350;19.386;2022-12-07T03:08:13;1.40;99.90
21459;DHT22;10891;49.350;19.386;2022-12-07T03:10:52;1.50;99.90
21459;DHT22;10891;49.350;19.386;2022-12-07T03:13:25;1.50;99.90
21459;DHT22;10891;49.350;19.386;2022-12-07T03:16:02;1.50;99.90
21459;DHT22;10891;49.350;19.386;2022-12-07T03:18:33;1.50;99.90
21459;DHT22;10891;49.350;19.386;2022-12-07T03:21:04;1.50;99.90
21459;DHT22;10891;49.350;19.386;2022-12-07T03:23:33;1.50;99.90
21459;DHT22;10891;49.350;19.386;2022-12-07T03:26:02;1.50;99.90
21459;DHT22;10891;49.350;19.386;2022-12-07T03:28:32;1.50;99.90
21459;DHT22;10891;49.350;19.386;2022-12-07T03:31:03;1.50;99.90
21459;DHT22;10891;49.350;19.386;2022-12-07T03:33:35;1.50;99.90
21459;DHT22;10891;49.350;19.386;2022-12-07T03:36:06;1.50;99.90
21459;DHT22;10891;49.350;19.386;2022-12-07T03:38:38;1.50;99.90
21459;DHT22;10891;49.350;19.386;2022-12-07T03:41:09;1.50;99.90
21459;DHT22;10891;49.350;19.386;2022-12-07T03:43:38;1.50;99.90
21459;DHT22;10891;49.350;19.386;2022-12-07T03:46:17;1.50;99.90
21459;DHT22;10891;49.350;19.386;2022-12-07T03:48:53;1.50;99.90
21459;DHT22;10891;49.350;19.386;2022-12-07T03:51:26;1.50;99.90
21459;DHT22;10891;49.350;19.386;2022-12-07T03:53:59;1.50;99.90
21459;DHT22;10891;49.350;19.386;2022-12-07T03:56:29;1.50;99.90
21459;DHT22;10891;49.350;19.386;2022-12-07T03:58:56;1.50;99.90
21459;DHT22;10891;49.350;19.386;2022-12-07T04:01:25;1.60;99.90
21459;DHT22;10891;49.350;19.386;2022-12-07T04:03:52;1.60;99.90
21459;DHT22;10891;49.350;19.386;2022-12-07T04:06:19;1.60;99.90
21459;DHT22;10891;49.350;19.386;2022-12-07T04:08:46;1.60;99.90
21459;DHT22;10891;49.350;19.386;2022-12-07T04:11:12;1.60;99.90
21459;DHT22;10891;49.350;19.386;2022-12-07T04:13:39;1.60;99.90
21459;DHT22;10891;49.350;19.386;2022-12-07T04:16:25;1.60;99.90
21459;DHT22;10891;49.350;19.386;2022-12-07T04:18:53;1.60;99.90
21459;DHT22;10891;49.350;19.386;2022-12-07T04:21:21;1.50;99.90
21459;DHT22;10891;49.350;19.386;2022-12-07T04:23:49;1.50;99.90
21459;DHT22;10891;49.350;19.386;2022-12-07T04:26:16;1.60;99.90
21459;DHT22;10891;49.350;19.386;2022-12-07T04:28:42;1.60;99.90
21459;DHT22;10891;49.350;19.386;2022-12-07T04:31:09;1.60;99.90
21459;DHT22;10891;49.350;19.386;2022-12-07T04:33:37;1.60;99.90
21459;DHT22;10891;49.350;19.386;2022-12-07T04:36:05;1.60;99.90
21459;DHT22;10891;49.350;19.386;2022-12-07T04:38:32;1.60;99.90
21459;DHT22;10891;49.350;19.386;2022-12-07T04:41:04;1.60;99.90
21459;DHT22;10891;49.350;19.386;2022-12-07T04:43:31;1.60;99.90
21459;DHT22;10891;49.350;19.386;2022-12-07T04:45:58;1.50;99.90
21459;DHT22;10891;49.350;19.386;2022-12-07T04:48:25;1.50;99.90
21459;DHT22;10891;49.350;19.386;2022-12-07T04:50:53;1.50;99.90
21459;DHT22;10891;49.350;19.386;2022-12-07T04:53:21;1.50;99.90
21459;DHT22;10891;49.350;19.386;2022-12-07T04:55:48;1.40;99.90
21459;DHT22;10891;49.350;19.386;2022-12-07T04:58:15;1.50;99.90
21459;DHT22;10891;49.350;19.386;2022-12-07T05:00:42;1.50;99.90
21459;DHT22;10891;49.350;19.386;2022-12-07T05:03:09;1.50;99.90
21459;DHT22;10891;49.350;19.386;2022-12-07T05:05:35;1.40;99.90
21459;DHT22;10891;49.350;19.386;2022-12-07T05:08:04;1.40;99.90
21459;DHT22;10891;49.350;19.386;2022-12-07T05:10:31;1.40;99.90
21459;DHT22;10891;49.350;19.386;2022-12-07T05:12:58;1.40;99.90
21459;DHT22;10891;49.350;19.386;2022-12-07T05:15:25;1.40;99.90
21459;DHT22;10891;49.350;19.386;2022-12-07T05:17:52;1.40;99.90
21459;DHT22;10891;49.350;19.386;2022-12-07T05:20:19;1.40;99.90
21459;DHT22;10891;49.350;19.386;2022-12-07T05:22:46;1.40;99.90
21459;DHT22;10891;49.350;19.386;2022-12-07T05:25:14;1.40;99.90
21459;DHT22;10891;49.350;19.386;2022-12-07T05:27:41;1.40;99.90
21459;DHT22;10891;49.350;19.386;2022-12-07T05:30:08;1.40;99.90
21459;DHT22;10891;49.350;19.386;2022-12-07T05:32:35;1.50;99.90
21459;DHT22;10891;49.350;19.386;2022-12-07T05:35:02;1.50;99.90
21459;DHT22;10891;49.350;19.386;2022-12-07T05:37:29;1.60;99.90
21459;DHT22;10891;49.350;19.386;2022-12-07T05:39:56;1.70;99.90
21459;DHT22;10891;49.350;19.386;2022-12-07T05:42:24;1.70;99.90
21459;DHT22;10891;49.350;19.386;2022-12-07T05:44:51;1.70;99.90
21459;DHT22;10891;49.350;19.386;2022-12-07T05:47:18;1.70;99.90
21459;DHT22;10891;49.350;19.386;2022-12-07T05:49:45;1.60;99.90
21459;DHT22;10891;49.350;19.386;2022-12-07T05:52:11;1.50;99.90
21459;DHT22;10891;49.350;19.386;2022-12-07T05:54:38;1.50;99.90
21459;DHT22;10891;49.350;19.386;2022-12-07T05:57:05;1.40;99.90
21459;DHT22;10891;49.350;19.386;2022-12-07T05:59:33;1.40;99.90
21459;DHT22;10891;49.350;19.386;2022-12-07T06:02:01;1.50;99.90
21459;DHT22;10891;49.350;19.386;2022-12-07T06:04:29;1.50;99.90
21459;DHT22;10891;49.350;19.386;2022-12-07T06:06:57;1.40;99.90
21459;DHT22;10891;49.350;19.386;2022-12-07T06:09:25;1.40;99.90
21459;DHT22;10891;49.350;19.386;2022-12-07T06:11:53;1.40;99.90
21459;DHT22;10891;49.350;19.386;2022-12-07T06:14:40;1.40;99.90
21459;DHT22;10891;49.350;19.386;2022-12-07T06:17:07;1.40;99.90
21459;DHT22;10891;49.350;19.386;2022-12-07T06:19:35;1.30;99.90
21459;DHT22;10891;49.350;19.386;2022-12-07T06:22:02;1.30;99.90
21459;DHT22;10891;49.350;19.386;2022-12-07T06:24:31;1.30;99.90
21459;DHT22;10891;49.350;19.386;2022-12-07T06:26:59;1.30;99.90
21459;DHT22;10891;49.350;19.386;2022-12-07T06:29:29;1.40;99.90
21459;DHT22;10891;49.350;19.386;2022-12-07T06:32:00;1.50;99.90
21459;DHT22;10891;49.350;19.386;2022-12-07T06:34:27;1.50;99.90
21459;DHT22;10891;49.350;19.386;2022-12-07T06:36:56;1.50;99.90
21459;DHT22;10891;49.350;19.386;2022-12-07T06:39:25;1.50;99.90
21459;DHT22;10891;49.350;19.386;2022-12-07T06:41:56;1.50;99.90
21459;DHT22;10891;49.350;19.386;2022-12-07T06:44:23;1.50;99.90
21459;DHT22;10891;49.350;19.386;2022-12-07T06:46:51;1.60;99.90
21459;DHT22;10891;49.350;19.386;2022-12-07T06:49:21;1.60;99.90
21459;DHT22;10891;49.350;19.386;2022-12-07T06:51:48;1.60;99.90
21459;DHT22;10891;49.350;19.386;2022-12-07T06:54:15;1.60;99.90
21459;DHT22;10891;49.350;19.386;2022-12-07T06:56:42;1.60;99.90
21459;DHT22;10891;49.350;19.386;2022-12-07T06:59:09;1.60;99.90
21459;DHT22;10891;49.350;19.386;2022-12-07T07:01:36;1.60;99.90
21459;DHT22;10891;49.350;19.386;2022-12-07T07:04:03;1.50;99.90
21459;DHT22;10891;49.350;19.386;2022-12-07T07:06:32;1.60;99.90
21459;DHT22;10891;49.350;19.386;2022-12-07T07:09:03;1.60;99.90
21459;DHT22;10891;49.350;19.386;2022-12-07T07:11:33;1.50;99.90
21459;DHT22;10891;49.350;19.386;2022-12-07T07:14:00;1.60;99.90
21459;DHT22;10891;49.350;19.386;2022-12-07T07:16:28;1.50;99.90
21459;DHT22;10891;49.350;19.386;2022-12-07T07:18:58;1.50;99.90
21459;DHT22;10891;49.350;19.386;2022-12-07T07:21:26;1.50;99.90
21459;DHT22;10891;49.350;19.386;2022-12-07T07:24:00;1.50;99.90
21459;DHT22;10891;49.350;19.386;2022-12-07T07:26:30;1.50;99.90
21459;DHT22;10891;49.350;19.386;2022-12-07T07:28:57;1.50;99.90
21459;DHT22;10891;49.350;19.386;2022-12-07T07:31:24;1.50;99.90
21459;DHT22;10891;49.350;19.386;2022-12-07T07:33:51;1.50;99.90
21459;DHT22;10891;49.350;19.386;2022-12-07T07:36:19;1.60;99.90
21459;DHT22;10891;49.350;19.386;2022-12-07T07:38:47;1.70;99.90
21459;DHT22;10891;49.350;19.386;2022-12-07T07:41:21;1.60;99.90
21459;DHT22;10891;49.350;19.386;2022-12-07T07:43:48;1.70;99.90
21459;DHT22;10891;49.350;19.386;2022-12-07T07:46:15;1.70;99.90
21459;DHT22;10891;49.350;19.386;2022-12-07T07:48:42;1.70;99.90
21459;DHT22;10891;49.350;19.386;2022-12-07T07:51:09;1.70;99.90
21459;DHT22;10891;49.350;19.386;2022-12-07T07:53:36;1.70;99.90
21459;DHT22;10891;49.350;19.386;2022-12-07T07:56:03;1.70;99.90
21459;DHT22;10891;49.350;19.386;2022-12-07T07:58:31;1.60;99.90
21459;DHT22;10891;49.350;19.386;2022-12-07T08:01:03;1.70;99.90
21459;DHT22;10891;49.350;19.386;2022-12-07T08:03:30;1.70;99.90
21459;DHT22;10891;49.350;19.386;2022-12-07T08:05:57;1.70;99.90
21459;DHT22;10891;49.350;19.386;2022-12-07T08:08:24;1.60;99.90
21459;DHT22;10891;49.350;19.386;2022-12-07T08:10:52;1.70;99.90
21459;DHT22;10891;49.350;19.386;2022-12-07T08:13:19;1.80;99.90
21459;DHT22;10891;49.350;19.386;2022-12-07T08:15:48;1.80;99.90
21459;DHT22;10891;49.350;19.386;2022-12-07T08:18:15;1.80;99.90
21459;DHT22;10891;49.350;19.386;2022-12-07T08:20:43;1.90;99.90
21459;DHT22;10891;49.350;19.386;2022-12-07T08:23:10;2.00;99.90
21459;DHT22;10891;49.350;19.386;2022-12-07T08:25:37;2.00;99.90
21459;DHT22;10891;49.350;19.386;2022-12-07T08:28:05;2.00;99.90
21459;DHT22;10891;49.350;19.386;2022-12-07T08:30:32;2.00;99.90
21459;DHT22;10891;49.350;19.386;2022-12-07T08:33:01;2.00;99.90
21459;DHT22;10891;49.350;19.386;2022-12-07T08:35:27;2.10;99.90
21459;DHT22;10891;49.350;19.386;2022-12-07T08:37:54;2.10;99.90
21459;DHT22;10891;49.350;19.386;2022-12-07T08:40:23;2.20;99.90
21459;DHT22;10891;49.350;19.386;2022-12-07T08:42:50;2.20;99.90
21459;DHT22;10891;49.350;19.386;2022-12-07T08:45:18;2.30;99.90
21459;DHT22;10891;49.350;19.386;2022-12-07T08:47:48;2.30;99.90
21459;DHT22;10891;49.350;19.386;2022-12-07T08:50:18;2.30;99.90
21459;DHT22;10891;49.350;19.386;2022-12-07T08:52:48;2.50;99.90
21459;DHT22;10891;49.350;19.386;2022-12-07T08:55:20;2.60;99.90
21459;DHT22;10891;49.350;19.386;2022-12-07T08:57:47;2.70;99.90
21459;DHT22;10891;49.350;19.386;2022-12-07T09:00:15;2.80;99.90
21459;DHT22;10891;49.350;19.386;2022-12-07T09:02:43;2.90;99.90
21459;DHT22;10891;49.350;19.386;2022-12-07T09:05:10;2.90;99.90
21459;DHT22;10891;49.350;19.386;2022-12-07T09:07:39;2.80;99.90
21459;DHT22;10891;49.350;19.386;2022-12-07T09:10:07;2.70;99.90
21459;DHT22;10891;49.350;19.386;2022-12-07T09:12:34;2.60;99.90
21459;DHT22;10891;49.350;19.386;2022-12-07T09:15:01;2.60;99.90
21459;DHT22;10891;49.350;19.386;2022-12-07T09:17:32;2.60;99.90
21459;DHT22;10891;49.350;19.386;2022-12-07T09:19:58;2.60;99.90
21459;DHT22;10891;49.350;19.386;2022-12-07T09:22:28;2.70;99.90
21459;DHT22;10891;49.350;19.386;2022-12-07T09:24:56;2.80;99.90
21459;DHT22;10891;49.350;19.386;2022-12-07T09:27:23;2.90;99.90
21459;DHT22;10891;49.350;19.386;2022-12-07T09:29:50;2.90;99.90
21459;DHT22;10891;49.350;19.386;2022-12-07T09:32:17;3.00;99.90
21459;DHT22;10891;49.350;19.386;2022-12-07T09:34:44;2.90;99.90
21459;DHT22;10891;49.350;19.386;2022-12-07T09:37:11;2.90;99.90
21459;DHT22;10891;49.350;19.386;2022-12-07T09:39:38;2.90;99.90
21459;DHT22;10891;49.350;19.386;2022-12-07T09:42:07;3.00;99.90
21459;DHT22;10891;49.350;19.386;2022-12-07T09:44:36;2.90;99.90
21459;DHT22;10891;49.350;19.386;2022-12-07T09:47:03;2.90;99.90
21459;DHT22;10891;49.350;19.386;2022-12-07T09:49:31;2.90;99.90
21459;DHT22;10891;49.350;19.386;2022-12-07T09:52:16;3.00;99.90
21459;DHT22;10891;49.350;19.386;2022-12-07T09:54:46;2.90;99.90
21459;DHT22;10891;49.350;19.386;2022-12-07T09:57:15;3.00;99.90
21459;DHT22;10891;49.350;19.386;2022-12-07T09:59:42;3.00;99.90
21459;DHT22;10891;49.350;19.386;2022-12-07T10:02:34;3.10;99.90
21459;DHT22;10891;49.350;19.386;2022-12-07T10:05:04;3.20;99.90
21459;DHT22;10891;49.350;19.386;2022-12-07T10:07:31;3.30;99.90
21459;DHT22;10891;49.350;19.386;2022-12-07T10:09:59;3.30;99.90
21459;DHT22;10891;49.350;19.386;2022-12-07T10:12:29;3.40;99.90
21459;DHT22;10891;49.350;19.386;2022-12-07T10:15:00;3.30;99.90
21459;DHT22;10891;49.350;19.386;2022-12-07T10:17:34;3.10;99.90
21459;DHT22;10891;49.350;19.386;2022-12-07T10:20:16;3.10;99.90
21459;DHT22;10891;49.350;19.386;2022-12-07T10:22:59;3.00;99.90
21459;DHT22;10891;49.350;19.386;2022-12-07T10:25:29;3.10;99.90
21459;DHT22;10891;49.350;19.386;2022-12-07T10:28:02;3.00;99.90
21459;DHT22;10891;49.350;19.386;2022-12-07T10:30:30;3.00;99.90
21459;DHT22;10891;49.350;19.386;2022-12-07T10:32:58;3.00;99.90
21459;DHT22;10891;49.350;19.386;2022-12-07T10:35:27;3.10;99.90
21459;DHT22;10891;49.350;19.386;2022-12-07T10:37:56;3.20;99.90
21459;DHT22;10891;49.350;19.386;2022-12-07T10:40:30;3.10;99.90
21459;DHT22;10891;49.350;19.386;2022-12-07T10:43:15;3.00;99.90
21459;DHT22;10891;49.350;19.386;2022-12-07T10:48:49;2.90;99.90
21459;DHT22;10891;49.350;19.386;2022-12-07T10:51:21;2.70;99.90
21459;DHT22;10891;49.350;19.386;2022-12-07T10:53:57;2.70;99.90
21459;DHT22;10891;49.350;19.386;2022-12-07T10:59:35;2.50;99.90
21459;DHT22;10891;49.350;19.386;2022-12-07T11:02:21;2.20;99.90
21459;DHT22;10891;49.350;19.386;2022-12-07T11:04:58;2.10;99.90
21459;DHT22;10891;49.350;19.386;2022-12-07T11:07:38;2.10;99.90
21459;DHT22;10891;49.350;19.386;2022-12-07T11:10:13;2.30;99.90
21459;DHT22;10891;49.350;19.386;2022-12-07T11:12:53;2.40;99.90
21459;DHT22;10891;49.350;19.386;2022-12-07T11:15:31;2.50;99.90
21459;DHT22;10891;49.350;19.386;2022-12-07T11:18:06;2.60;99.90
21459;DHT22;10891;49.350;19.386;2022-12-07T11:20:41;2.60;99.90
21459;DHT22;10891;49.350;19.386;2022-12-07T11:23:18;2.70;99.90
21459;DHT22;10891;49.350;19.386;2022-12-07T11:25:53;2.60;99.90
21459;DHT22;10891;49.350;19.386;2022-12-07T11:28:30;2.20;99.90
21459;DHT22;10891;49.350;19.386;2022-12-07T11:31:08;2.00;99.90
21459;DHT22;10891;49.350;19.386;2022-12-07T11:33:41;1.80;99.90
21459;DHT22;10891;49.350;19.386;2022-12-07T11:36:31;2.00;99.90
21459;DHT22;10891;49.350;19.386;2022-12-07T11:39:08;2.20;99.90
21459;DHT22;10891;49.350;19.386;2022-12-07T11:41:39;2.30;99.90
21459;DHT22;10891;49.350;19.386;2022-12-07T11:44:11;2.30;99.90
21459;DHT22;10891;49.350;19.386;2022-12-07T11:46:47;2.30;99.90
21459;DHT22;10891;49.350;19.386;2022-12-07T11:49:23;2.20;99.90
21459;DHT22;10891;49.350;19.386;2022-12-07T11:51:53;2.10;99.90
21459;DHT22;10891;49.350;19.386;2022-12-07T11:54:28;2.00;99.90
21459;DHT22;10891;49.350;19.386;2022-12-07T11:57:01;1.90;99.90
21459;DHT22;10891;49.350;19.386;2022-12-07T11:59:33;1.90;99.90
21459;DHT22;10891;49.350;19.386;2022-12-07T12:02:12;1.80;99.90
21459;DHT22;10891;49.350;19.386;2022-12-07T12:04:49;1.70;99.90
21459;DHT22;10891;49.350;19.386;2022-12-07T12:07:21;1.60;99.90
21459;DHT22;10891;49.350;19.386;2022-12-07T12:09:52;1.50;99.90
21459;DHT22;10891;49.350;19.386;2022-12-07T12:12:33;1.50;99.90
21459;DHT22;10891;49.350;19.386;2022-12-07T12:15:24;1.40;99.90
21459;DHT22;10891;49.350;19.386;2022-12-07T12:18:16;1.40;99.90
21459;DHT22;10891;49.350;19.386;2022-12-07T12:20:51;1.50;99.90
21459;DHT22;10891;49.350;19.386;2022-12-07T12:23:23;1.50;99.90
21459;DHT22;10891;49.350;19.386;2022-12-07T12:25:53;1.60;99.90
21459;DHT22;10891;49.350;19.386;2022-12-07T12:28:25;1.60;99.90
21459;DHT22;10891;49.350;19.386;2022-12-07T12:31:14;1.60;99.90
21459;DHT22;10891;49.350;19.386;2022-12-07T12:33:45;1.60;99.90
21459;DHT22;10891;49.350;19.386;2022-12-07T12:36:25;1.50;99.90
21459;DHT22;10891;49.350;19.386;2022-12-07T12:39:09;1.50;99.90
21459;DHT22;10891;49.350;19.386;2022-12-07T12:41:58;1.50;99.90
21459;DHT22;10891;49.350;19.386;2022-12-07T12:47:56;1.50;99.90
21459;DHT22;10891;49.350;19.386;2022-12-07T12:50:27;1.50;99.90
21459;DHT22;10891;49.350;19.386;2022-12-07T12:53:01;1.60;99.90
21459;DHT22;10891;49.350;19.386;2022-12-07T12:55:57;1.60;99.90
21459;DHT22;10891;49.350;19.386;2022-12-07T12:58:41;1.60;99.90
21459;DHT22;10891;49.350;19.386;2022-12-07T13:01:39;1.60;99.90
21459;DHT22;10891;49.350;19.386;2022-12-07T13:04:37;1.60;99.90
21459;DHT22;10891;49.350;19.386;2022-12-07T13:07:12;1.50;99.90
21459;DHT22;10891;49.350;19.386;2022-12-07T13:09:43;1.50;99.90
21459;DHT22;10891;49.350;19.386;2022-12-07T13:12:14;1.50;99.90
21459;DHT22;10891;49.350;19.386;2022-12-07T13:14:51;1.50;99.90
21459;DHT22;10891;49.350;19.386;2022-12-07T13:20:43;1.50;99.90
21459;DHT22;10891;49.350;19.386;2022-12-07T13:23:12;1.40;99.90
21459;DHT22;10891;49.350;19.386;2022-12-07T13:25:51;1.40;99.90
21459;DHT22;10891;49.350;19.386;2022-12-07T13:28:22;1.40;99.90
21459;DHT22;10891;49.350;19.386;2022-12-07T13:31:03;1.50;99.90
21459;DHT22;10891;49.350;19.386;2022-12-07T13:33:34;1.50;99.90
21459;DHT22;10891;49.350;19.386;2022-12-07T13:36:01;1.50;99.90
21459;DHT22;10891;49.350;19.386;2022-12-07T13:38:32;1.50;99.90
21459;DHT22;10891;49.350;19.386;2022-12-07T13:41:11;1.50;99.90
21459;DHT22;10891;49.350;19.386;2022-12-07T13:43:47;1.40;99.90
21459;DHT22;10891;49.350;19.386;2022-12-07T13:46:15;1.20;99.90
21459;DHT22;10891;49.350;19.386;2022-12-07T13:48:45;1.00;99.90
21459;DHT22;10891;49.350;19.386;2022-12-07T13:51:22;0.90;99.90
21459;DHT22;10891;49.350;19.386;2022-12-07T13:53:53;0.90;99.90
21459;DHT22;10891;49.350;19.386;2022-12-07T13:56:22;0.90;99.90
21459;DHT22;10891;49.350;19.386;2022-12-07T13:58:52;0.90;99.90
21459;DHT22;10891;49.350;19.386;2022-12-07T14:01:19;0.90;99.90
21459;DHT22;10891;49.350;19.386;2022-12-07T14:03:46;1.00;99.90
21459;DHT22;10891;49.350;19.386;2022-12-07T14:06:22;1.00;99.90
21459;DHT22;10891;49.350;19.386;2022-12-07T14:09:09;1.10;99.90
21459;DHT22;10891;49.350;19.386;2022-12-07T14:11:41;1.10;99.90
21459;DHT22;10891;49.350;19.386;2022-12-07T14:14:13;1.10;99.90
21459;DHT22;10891;49.350;19.386;2022-12-07T14:16:43;1.20;99.90
21459;DHT22;10891;49.350;19.386;2022-12-07T14:19:41;1.20;99.90
21459;DHT22;10891;49.350;19.386;2022-12-07T14:22:15;1.20;99.90
21459;DHT22;10891;49.350;19.386;2022-12-07T14:24:45;1.20;99.90
21459;DHT22;10891;49.350;19.386;2022-12-07T14:27:18;1.20;99.90
21459;DHT22;10891;49.350;19.386;2022-12-07T14:29:45;1.10;99.90
21459;DHT22;10891;49.350;19.386;2022-12-07T14:32:21;1.10;99.90
21459;DHT22;10891;49.350;19.386;2022-12-07T14:34:58;1.20;99.90
21459;DHT22;10891;49.350;19.386;2022-12-07T14:37:26;1.20;99.90
21459;DHT22;10891;49.350;19.386;2022-12-07T14:39:55;1.20;99.90
21459;DHT22;10891;49.350;19.386;2022-12-07T14:42:24;1.20;99.90
21459;DHT22;10891;49.350;19.386;2022-12-07T14:44:51;1.20;99.90
21459;DHT22;10891;49.350;19.386;2022-12-07T14:47:18;1.20;99.90
21459;DHT22;10891;49.350;19.386;2022-12-07T14:49:45;1.20;99.90
21459;DHT22;10891;49.350;19.386;2022-12-07T14:52:15;1.30;99.90
21459;DHT22;10891;49.350;19.386;2022-12-07T14:54:43;1.30;99.90
21459;DHT22;10891;49.350;19.386;2022-12-07T14:57:11;1.30;99.90
21459;DHT22;10891;49.350;19.386;2022-12-07T14:59:38;1.30;99.90
21459;DHT22;10891;49.350;19.386;2022-12-07T15:02:06;1.30;99.90
21459;DHT22;10891;49.350;19.386;2022-12-07T15:04:33;1.30;99.90
21459;DHT22;10891;49.350;19.386;2022-12-07T15:07:03;1.30;99.90
21459;DHT22;10891;49.350;19.386;2022-12-07T15:09:30;1.30;99.90
21459;DHT22;10891;49.350;19.386;2022-12-07T15:11:57;1.20;99.90
21459;DHT22;10891;49.350;19.386;2022-12-07T15:14:25;1.30;99.90
21459;DHT22;10891;49.350;19.386;2022-12-07T15:16:52;1.30;99.90
21459;DHT22;10891;49.350;19.386;2022-12-07T15:19:21;1.30;99.90
21459;DHT22;10891;49.350;19.386;2022-12-07T15:21:51;1.30;99.90
21459;DHT22;10891;49.350;19.386;2022-12-07T15:24:18;1.30;99.90
21459;DHT22;10891;49.350;19.386;2022-12-07T15:26:46;1.30;99.90
21459;DHT22;10891;49.350;19.386;2022-12-07T15:29:13;1.30;99.90
21459;DHT22;10891;49.350;19.386;2022-12-07T15:31:43;1.30;99.90
21459;DHT22;10891;49.350;19.386;2022-12-07T15:34:11;1.30;99.90
21459;DHT22;10891;49.350;19.386;2022-12-07T15:36:41;1.20;99.90
21459;DHT22;10891;49.350;19.386;2022-12-07T15:39:09;1.30;99.90
21459;DHT22;10891;49.350;19.386;2022-12-07T15:41:36;1.20;99.90
21459;DHT22;10891;49.350;19.386;2022-12-07T15:44:03;1.20;99.90
21459;DHT22;10891;49.350;19.386;2022-12-07T15:46:49;1.20;99.90
21459;DHT22;10891;49.350;19.386;2022-12-07T15:49:17;1.20;99.90
21459;DHT22;10891;49.350;19.386;2022-12-07T15:51:45;1.20;99.90
21459;DHT22;10891;49.350;19.386;2022-12-07T15:54:17;1.20;99.90
21459;DHT22;10891;49.350;19.386;2022-12-07T15:56:45;1.20;99.90
21459;DHT22;10891;49.350;19.386;2022-12-07T15:59:12;1.30;99.90
21459;DHT22;10891;49.350;19.386;2022-12-07T16:01:39;1.20;99.90
21459;DHT22;10891;49.350;19.386;2022-12-07T16:04:08;1.20;99.90